sensor_id;sensor_type;location;lat;lon;timestamp;pressure;altitude;pressure_sealevel;temperature;humidity
59831;BME280;45711;50.108;13.712;2023-10-31T00:01:03;96018.44;;;12.74;94.14
59831;BME280;45711;50.108;13.712;2023-10-31T00:03:28;96009.19;;;12.72;94.71
59831;BME280;45711;50.108;13.712;2023-10-31T00:05:55;96013.09;;;12.74;95.13
59831;BME280;45711;50.108;13.712;2023-10-31T00:08:21;96017.25;;;12.72;96.01
59831;BME280;45711;50.108;13.712;2023-10-31T00:10:46;96014.63;;;12.75;96.33
59831;BME280;45711;50.108;13.712;2023-10-31T00:13:12;96015.00;;;12.74;95.82
59831;BME280;45711;50.108;13.712;2023-10-31T00:15:37;96003.22;;;12.78;94.86
59831;BME280;45711;50.108;13.712;2023-10-31T00:18:03;96005.03;;;12.74;95.94
59831;BME280;45711;50.108;13.712;2023-10-31T00:20:28;96014.50;;;12.84;95.94
59831;BME280;45711;50.108;13.712;2023-10-31T00:22:56;96016.78;;;12.70;96.59
59831;BME280;45711;50.108;13.712;2023-10-31T00:25:21;96021.16;;;12.62;97.24
59831;BME280;45711;50.108;13.712;2023-10-31T00:27:47;96020.94;;;12.67;97.51
59831;BME280;45711;50.108;13.712;2023-10-31T00:30:13;96017.00;;;12.65;97.37
59831;BME280;45711;50.108;13.712;2023-10-31T00:32:38;96020.47;;;12.53;97.86
59831;BME280;45711;50.108;13.712;2023-10-31T00:35:04;96023.28;;;12.56;98.27
59831;BME280;45711;50.108;13.712;2023-10-31T00:37:30;96030.91;;;12.54;98.62
59831;BME280;45711;50.108;13.712;2023-10-31T00:39:57;96031.75;;;12.71;96.22
59831;BME280;45711;50.108;13.712;2023-10-31T00:42:23;96037.72;;;12.52;98.02
59831;BME280;45711;50.108;13.712;2023-10-31T00:44:48;96034.13;;;12.48;99.35
59831;BME280;45711;50.108;13.712;2023-10-31T00:47:14;96049.00;;;12.45;100.00
59831;BME280;45711;50.108;13.712;2023-10-31T00:49:40;96039.72;;;12.43;100.00
59831;BME280;45711;50.108;13.712;2023-10-31T00:52:06;96033.69;;;12.46;100.00
59831;BME280;45711;50.108;13.712;2023-10-31T00:54:31;96022.63;;;12.47;100.00
59831;BME280;45711;50.108;13.712;2023-10-31T00:56:58;96015.16;;;12.41;100.00
59831;BME280;45711;50.108;13.712;2023-10-31T00:59:24;96016.34;;;12.43;100.00
59831;BME280;45711;50.108;13.712;2023-10-31T01:01:49;96010.88;;;12.40;100.00
59831;BME280;45711;50.108;13.712;2023-10-31T01:04:15;96012.47;;;12.41;100.00
59831;BME280;45711;50.108;13.712;2023-10-31T01:06:41;96017.03;;;12.40;100.00
59831;BME280;45711;50.108;13.712;2023-10-31T01:09:07;96018.59;;;12.53;100.00
59831;BME280;45711;50.108;13.712;2023-10-31T01:11:32;96010.44;;;12.50;100.00
59831;BME280;45711;50.108;13.712;2023-10-31T01:13:59;96015.81;;;12.38;100.00
59831;BME280;45711;50.108;13.712;2023-10-31T01:16:24;96024.53;;;12.47;100.00
59831;BME280;45711;50.108;13.712;2023-10-31T01:18:50;96006.16;;;12.73;98.15
59831;BME280;45711;50.108;13.712;2023-10-31T01:21:16;95999.47;;;12.67;98.67
59831;BME280;45711;50.108;13.712;2023-10-31T01:23:41;95997.44;;;12.64;98.53
59831;BME280;45711;50.108;13.712;2023-10-31T01:26:07;96015.69;;;12.46;99.42
59831;BME280;45711;50.108;13.712;2023-10-31T01:28:32;96016.47;;;12.47;100.00
59831;BME280;45711;50.108;13.712;2023-10-31T01:30:59;96015.13;;;12.53;98.51
59831;BME280;45711;50.108;13.712;2023-10-31T01:33:25;96026.50;;;12.62;99.12
59831;BME280;45711;50.108;13.712;2023-10-31T01:35:51;96031.56;;;12.51;99.56
59831;BME280;45711;50.108;13.712;2023-10-31T01:38:16;96040.28;;;12.61;99.13
59831;BME280;45711;50.108;13.712;2023-10-31T01:40:42;96038.06;;;12.63;97.99
59831;BME280;45711;50.108;13.712;2023-10-31T01:43:07;96037.34;;;12.66;97.53
59831;BME280;45711;50.108;13.712;2023-10-31T01:45:33;96051.25;;;12.68;97.41
59831;BME280;45711;50.108;13.712;2023-10-31T01:48:00;96054.69;;;12.56;98.20
59831;BME280;45711;50.108;13.712;2023-10-31T01:50:26;96057.38;;;12.44;100.00
59831;BME280;45711;50.108;13.712;2023-10-31T01:52:52;96064.31;;;12.45;99.92
59831;BME280;45711;50.108;13.712;2023-10-31T01:55:18;96064.09;;;12.50;100.00
59831;BME280;45711;50.108;13.712;2023-10-31T01:57:44;96066.66;;;12.46;100.00
59831;BME280;45711;50.108;13.712;2023-10-31T02:00:12;96047.09;;;12.70;96.67
59831;BME280;45711;50.108;13.712;2023-10-31T02:02:40;96045.41;;;12.78;97.10
59831;BME280;45711;50.108;13.712;2023-10-31T02:05:09;96045.41;;;12.66;98.77
59831;BME280;45711;50.108;13.712;2023-10-31T02:07:34;96054.03;;;12.59;100.00
59831;BME280;45711;50.108;13.712;2023-10-31T02:10:00;96049.22;;;12.65;100.00
59831;BME280;45711;50.108;13.712;2023-10-31T02:12:32;96033.47;;;12.63;96.57
59831;BME280;45711;50.108;13.712;2023-10-31T02:14:58;96038.47;;;12.77;96.48
59831;BME280;45711;50.108;13.712;2023-10-31T02:17:24;96033.78;;;12.74;97.11
59831;BME280;45711;50.108;13.712;2023-10-31T02:19:50;96018.34;;;12.71;92.97
59831;BME280;45711;50.108;13.712;2023-10-31T02:22:16;96021.25;;;12.66;93.90
59831;BME280;45711;50.108;13.712;2023-10-31T02:24:42;96022.94;;;12.70;91.56
59831;BME280;45711;50.108;13.712;2023-10-31T02:27:08;96020.94;;;12.67;90.85
59831;BME280;45711;50.108;13.712;2023-10-31T02:29:36;96023.03;;;12.74;92.69
59831;BME280;45711;50.108;13.712;2023-10-31T02:32:02;96041.28;;;12.68;95.10
59831;BME280;45711;50.108;13.712;2023-10-31T02:34:28;96022.16;;;12.70;90.37
59831;BME280;45711;50.108;13.712;2023-10-31T02:36:53;96032.09;;;12.81;90.72
59831;BME280;45711;50.108;13.712;2023-10-31T02:39:20;96031.09;;;12.74;91.58
59831;BME280;45711;50.108;13.712;2023-10-31T02:41:46;96034.13;;;12.72;91.70
59831;BME280;45711;50.108;13.712;2023-10-31T02:44:11;96035.25;;;12.71;92.58
59831;BME280;45711;50.108;13.712;2023-10-31T02:46:37;96050.00;;;12.77;93.80
59831;BME280;45711;50.108;13.712;2023-10-31T02:49:04;96047.19;;;12.74;93.32
59831;BME280;45711;50.108;13.712;2023-10-31T02:51:29;96060.28;;;12.63;96.59
59831;BME280;45711;50.108;13.712;2023-10-31T02:53:55;96045.41;;;12.66;92.30
59831;BME280;45711;50.108;13.712;2023-10-31T02:56:22;96041.16;;;12.65;91.85
59831;BME280;45711;50.108;13.712;2023-10-31T02:58:48;96044.97;;;12.64;92.34
59831;BME280;45711;50.108;13.712;2023-10-31T03:01:14;96039.59;;;12.64;90.17
59831;BME280;45711;50.108;13.712;2023-10-31T03:03:39;96048.22;;;12.69;92.92
59831;BME280;45711;50.108;13.712;2023-10-31T03:06:05;96044.63;;;12.65;90.66
59831;BME280;45711;50.108;13.712;2023-10-31T03:08:31;96064.53;;;12.64;94.46
59831;BME280;45711;50.108;13.712;2023-10-31T03:10:56;96072.25;;;12.66;93.24
59831;BME280;45711;50.108;13.712;2023-10-31T03:13:23;96078.31;;;12.63;93.71
59831;BME280;45711;50.108;13.712;2023-10-31T03:15:49;96085.09;;;12.60;93.32
59831;BME280;45711;50.108;13.712;2023-10-31T03:18:15;96101.88;;;12.57;97.40
59831;BME280;45711;50.108;13.712;2023-10-31T03:20:40;96098.97;;;12.50;94.59
59831;BME280;45711;50.108;13.712;2023-10-31T03:23:06;96113.72;;;12.44;98.33
59831;BME280;45711;50.108;13.712;2023-10-31T03:25:31;96096.97;;;12.47;95.16
59831;BME280;45711;50.108;13.712;2023-10-31T03:27:57;96097.75;;;12.60;96.09
59831;BME280;45711;50.108;13.712;2023-10-31T03:30:24;96096.97;;;12.59;94.38
59831;BME280;45711;50.108;13.712;2023-10-31T03:32:50;96090.59;;;12.51;92.92
59831;BME280;45711;50.108;13.712;2023-10-31T03:35:16;96082.44;;;12.60;91.61
59831;BME280;45711;50.108;13.712;2023-10-31T03:37:42;96089.56;;;12.56;93.09
59831;BME280;45711;50.108;13.712;2023-10-31T03:40:08;96098.88;;;12.58;96.77
59831;BME280;45711;50.108;13.712;2023-10-31T03:42:33;96091.59;;;12.59;96.81
59831;BME280;45711;50.108;13.712;2023-10-31T03:44:59;96094.16;;;12.55;96.22
59831;BME280;45711;50.108;13.712;2023-10-31T03:47:26;96099.16;;;12.45;94.95
59831;BME280;45711;50.108;13.712;2023-10-31T03:49:52;96094.03;;;12.52;93.05
59831;BME280;45711;50.108;13.712;2023-10-31T03:52:17;96083.78;;;12.54;92.68
59831;BME280;45711;50.108;13.712;2023-10-31T03:54:44;96087.69;;;12.56;92.92
59831;BME280;45711;50.108;13.712;2023-10-31T03:57:10;96098.53;;;12.60;92.23
59831;BME280;45711;50.108;13.712;2023-10-31T03:59:36;96099.66;;;12.59;90.61
59831;BME280;45711;50.108;13.712;2023-10-31T04:02:02;96102.00;;;12.61;90.40
59831;BME280;45711;50.108;13.712;2023-10-31T04:04:29;96104.66;;;12.61;90.40
59831;BME280;45711;50.108;13.712;2023-10-31T04:06:55;96103.44;;;12.58;90.68
59831;BME280;45711;50.108;13.712;2023-10-31T04:09:20;96114.28;;;12.62;90.93
59831;BME280;45711;50.108;13.712;2023-10-31T04:11:46;96111.47;;;12.58;90.16
59831;BME280;45711;50.108;13.712;2023-10-31T04:14:11;96111.47;;;12.58;90.13
59831;BME280;45711;50.108;13.712;2023-10-31T04:16:39;96116.41;;;12.56;90.61
59831;BME280;45711;50.108;13.712;2023-10-31T04:19:05;96123.81;;;12.59;90.26
59831;BME280;45711;50.108;13.712;2023-10-31T04:21:32;96121.44;;;12.57;91.02
59831;BME280;45711;50.108;13.712;2023-10-31T04:23:58;96128.69;;;12.57;91.08
59831;BME280;45711;50.108;13.712;2023-10-31T04:26:23;96125.00;;;12.49;91.97
59831;BME280;45711;50.108;13.712;2023-10-31T04:28:49;96129.03;;;12.55;91.53
59831;BME280;45711;50.108;13.712;2023-10-31T04:31:14;96118.31;;;12.55;92.06
59831;BME280;45711;50.108;13.712;2023-10-31T04:33:40;96113.59;;;12.52;91.71
59831;BME280;45711;50.108;13.712;2023-10-31T04:36:05;96118.31;;;12.55;91.62
59831;BME280;45711;50.108;13.712;2023-10-31T04:38:32;96101.09;;;12.56;91.13
59831;BME280;45711;50.108;13.712;2023-10-31T04:41:01;96107.59;;;12.55;91.13
59831;BME280;45711;50.108;13.712;2023-10-31T04:43:27;96116.06;;;12.57;91.03
59831;BME280;45711;50.108;13.712;2023-10-31T04:45:53;96121.13;;;12.59;90.62
59831;BME280;45711;50.108;13.712;2023-10-31T04:48:18;96113.38;;;12.57;90.48
59831;BME280;45711;50.108;13.712;2023-10-31T04:50:44;96127.56;;;12.58;91.43
59831;BME280;45711;50.108;13.712;2023-10-31T04:53:10;96129.16;;;12.59;92.86
59831;BME280;45711;50.108;13.712;2023-10-31T04:55:36;96129.28;;;12.63;91.14
59831;BME280;45711;50.108;13.712;2023-10-31T04:58:02;96149.16;;;12.62;91.81
59831;BME280;45711;50.108;13.712;2023-10-31T05:00:28;96151.19;;;12.65;90.84
59831;BME280;45711;50.108;13.712;2023-10-31T05:02:53;96146.72;;;12.69;89.40
59831;BME280;45711;50.108;13.712;2023-10-31T05:05:19;96146.94;;;12.64;90.27
59831;BME280;45711;50.108;13.712;2023-10-31T05:07:44;96154.66;;;12.65;91.54
59831;BME280;45711;50.108;13.712;2023-10-31T05:10:10;96150.63;;;12.59;91.20
59831;BME280;45711;50.108;13.712;2023-10-31T05:12:37;96151.41;;;12.60;90.65
59831;BME280;45711;50.108;13.712;2023-10-31T05:15:03;96151.41;;;12.60;90.36
59831;BME280;45711;50.108;13.712;2023-10-31T05:17:29;96150.50;;;12.55;90.81
59831;BME280;45711;50.108;13.712;2023-10-31T05:19:55;96167.03;;;12.57;91.49
59831;BME280;45711;50.108;13.712;2023-10-31T05:22:20;96182.84;;;12.59;91.14
59831;BME280;45711;50.108;13.712;2023-10-31T05:24:46;96178.38;;;12.63;90.83
59831;BME280;45711;50.108;13.712;2023-10-31T05:27:12;96186.72;;;12.62;91.58
59831;BME280;45711;50.108;13.712;2023-10-31T05:29:39;96190.19;;;12.62;91.09
59831;BME280;45711;50.108;13.712;2023-10-31T05:32:05;96186.50;;;12.54;90.25
59831;BME280;45711;50.108;13.712;2023-10-31T05:34:31;96193.31;;;12.52;90.94
59831;BME280;45711;50.108;13.712;2023-10-31T05:36:57;96190.63;;;12.52;91.92
59831;BME280;45711;50.108;13.712;2023-10-31T05:39:23;96198.03;;;12.55;91.37
59831;BME280;45711;50.108;13.712;2023-10-31T05:41:48;96205.16;;;12.51;91.46
59831;BME280;45711;50.108;13.712;2023-10-31T05:44:14;96200.94;;;12.50;91.30
59831;BME280;45711;50.108;13.712;2023-10-31T05:46:41;96211.22;;;12.60;90.40
59831;BME280;45711;50.108;13.712;2023-10-31T05:49:07;96219.72;;;12.62;90.45
59831;BME280;45711;50.108;13.712;2023-10-31T05:51:33;96240.75;;;12.60;90.30
59831;BME280;45711;50.108;13.712;2023-10-31T05:54:00;96251.91;;;12.62;91.01
59831;BME280;45711;50.108;13.712;2023-10-31T05:56:26;96246.53;;;12.62;90.33
59831;BME280;45711;50.108;13.712;2023-10-31T05:58:53;96250.44;;;12.52;90.28
59831;BME280;45711;50.108;13.712;2023-10-31T06:01:19;96258.97;;;12.54;90.22
59831;BME280;45711;50.108;13.712;2023-10-31T06:03:48;96263.06;;;12.52;89.95
59831;BME280;45711;50.108;13.712;2023-10-31T06:06:14;96255.56;;;12.45;89.77
59831;BME280;45711;50.108;13.712;2023-10-31T06:08:41;96259.94;;;12.50;89.79
59831;BME280;45711;50.108;13.712;2023-10-31T06:11:06;96255.56;;;12.45;89.35
59831;BME280;45711;50.108;13.712;2023-10-31T06:13:33;96261.94;;;12.53;88.76
59831;BME280;45711;50.108;13.712;2023-10-31T06:16:00;96272.25;;;12.51;88.82
59831;BME280;45711;50.108;13.712;2023-10-31T06:18:25;96282.50;;;12.49;88.09
59831;BME280;45711;50.108;13.712;2023-10-31T06:20:53;96285.97;;;12.49;88.30
59831;BME280;45711;50.108;13.712;2023-10-31T06:23:18;96295.81;;;12.45;88.16
59831;BME280;45711;50.108;13.712;2023-10-31T06:25:44;96302.97;;;12.53;87.78
59831;BME280;45711;50.108;13.712;2023-10-31T06:28:09;96313.13;;;12.48;87.86
59831;BME280;45711;50.108;13.712;2023-10-31T06:30:35;96322.50;;;12.42;87.31
59831;BME280;45711;50.108;13.712;2023-10-31T06:33:01;96346.31;;;12.43;88.14
59831;BME280;45711;50.108;13.712;2023-10-31T06:35:26;96344.09;;;12.45;87.64
59831;BME280;45711;50.108;13.712;2023-10-31T06:37:55;96346.47;;;12.47;87.50
59831;BME280;45711;50.108;13.712;2023-10-31T06:40:25;96351.03;;;12.46;87.72
59831;BME280;45711;50.108;13.712;2023-10-31T06:42:50;96350.78;;;12.39;87.78
59831;BME280;45711;50.108;13.712;2023-10-31T06:45:16;96351.16;;;12.50;87.93
59831;BME280;45711;50.108;13.712;2023-10-31T06:47:42;96360.66;;;12.47;87.51
59831;BME280;45711;50.108;13.712;2023-10-31T06:50:08;96360.38;;;12.40;87.49
59831;BME280;45711;50.108;13.712;2023-10-31T06:52:34;96366.34;;;12.46;87.97
59831;BME280;45711;50.108;13.712;2023-10-31T06:55:01;96362.88;;;12.45;87.67
59831;BME280;45711;50.108;13.712;2023-10-31T06:57:26;96363.41;;;12.39;87.54
59831;BME280;45711;50.108;13.712;2023-10-31T06:59:52;96374.47;;;12.37;87.38
59831;BME280;45711;50.108;13.712;2023-10-31T07:02:18;96363.88;;;12.41;87.50
59831;BME280;45711;50.108;13.712;2023-10-31T07:04:43;96360.72;;;12.39;87.85
59831;BME280;45711;50.108;13.712;2023-10-31T07:07:09;96362.56;;;12.47;87.12
59831;BME280;45711;50.108;13.712;2023-10-31T07:09:35;96373.34;;;12.38;87.33
59831;BME280;45711;50.108;13.712;2023-10-31T07:12:02;96370.03;;;12.41;86.46
59831;BME280;45711;50.108;13.712;2023-10-31T07:14:28;96370.53;;;12.76;86.18
59831;BME280;45711;50.108;13.712;2023-10-31T07:16:53;96364.44;;;12.67;85.33
59831;BME280;45711;50.108;13.712;2023-10-31T07:19:21;96371.81;;;12.49;86.19
59831;BME280;45711;50.108;13.712;2023-10-31T07:21:47;96373.69;;;12.37;85.97
59831;BME280;45711;50.108;13.712;2023-10-31T07:24:12;96383.28;;;12.38;86.97
59831;BME280;45711;50.108;13.712;2023-10-31T07:26:38;96374.72;;;12.44;87.27
59831;BME280;45711;50.108;13.712;2023-10-31T07:29:05;96382.72;;;12.32;86.51
59831;BME280;45711;50.108;13.712;2023-10-31T07:31:30;96390.63;;;12.28;86.66
59831;BME280;45711;50.108;13.712;2023-10-31T07:33:58;96398.13;;;12.35;87.06
59831;BME280;45711;50.108;13.712;2023-10-31T07:36:25;96396.38;;;12.39;86.69
59831;BME280;45711;50.108;13.712;2023-10-31T07:38:51;96402.28;;;12.32;85.74
59831;BME280;45711;50.108;13.712;2023-10-31T07:41:17;96405.06;;;12.36;86.09
59831;BME280;45711;50.108;13.712;2023-10-31T07:43:42;96412.81;;;12.38;86.17
59831;BME280;45711;50.108;13.712;2023-10-31T07:46:09;96414.50;;;12.42;85.77
59831;BME280;45711;50.108;13.712;2023-10-31T07:48:35;96420.84;;;12.38;85.62
59831;BME280;45711;50.108;13.712;2023-10-31T07:51:01;96429.22;;;12.36;85.34
59831;BME280;45711;50.108;13.712;2023-10-31T07:53:26;96435.69;;;12.35;85.54
59831;BME280;45711;50.108;13.712;2023-10-31T07:55:52;96428.69;;;12.43;85.36
59831;BME280;45711;50.108;13.712;2023-10-31T07:58:17;96421.69;;;12.29;84.98
59831;BME280;45711;50.108;13.712;2023-10-31T08:00:43;96422.81;;;12.28;84.97
59831;BME280;45711;50.108;13.712;2023-10-31T08:03:10;96414.91;;;12.32;85.68
59831;BME280;45711;50.108;13.712;2023-10-31T08:05:35;96402.56;;;12.31;85.56
59831;BME280;45711;50.108;13.712;2023-10-31T08:08:04;96402.72;;;12.35;85.04
59831;BME280;45711;50.108;13.712;2023-10-31T08:10:29;96396.38;;;12.39;83.71
59831;BME280;45711;50.108;13.712;2023-10-31T08:12:55;96395.50;;;12.26;84.00
59831;BME280;45711;50.108;13.712;2023-10-31T08:15:20;96401.00;;;12.30;84.18
59831;BME280;45711;50.108;13.712;2023-10-31T08:17:46;96408.91;;;12.26;83.03
59831;BME280;45711;50.108;13.712;2023-10-31T08:20:13;96404.47;;;12.30;83.52
59831;BME280;45711;50.108;13.712;2023-10-31T08:22:39;96405.31;;;12.22;83.17
59831;BME280;45711;50.108;13.712;2023-10-31T08:25:07;96404.53;;;12.22;82.71
59831;BME280;45711;50.108;13.712;2023-10-31T08:27:33;96418.66;;;12.31;83.31
59831;BME280;45711;50.108;13.712;2023-10-31T08:29:59;96432.88;;;12.31;82.59
59831;BME280;45711;50.108;13.712;2023-10-31T08:32:24;96441.72;;;12.32;82.73
59831;BME280;45711;50.108;13.712;2023-10-31T08:34:50;96444.31;;;12.20;82.20
59831;BME280;45711;50.108;13.712;2023-10-31T08:37:17;96457.47;;;12.33;82.56
59831;BME280;45711;50.108;13.712;2023-10-31T08:39:43;96450.06;;;12.30;82.75
59831;BME280;45711;50.108;13.712;2023-10-31T08:42:09;96452.56;;;12.36;82.70
59831;BME280;45711;50.108;13.712;2023-10-31T08:44:35;96452.75;;;12.30;80.95
59831;BME280;45711;50.108;13.712;2023-10-31T08:47:03;96449.44;;;12.33;82.05
59831;BME280;45711;50.108;13.712;2023-10-31T08:49:28;96464.22;;;12.40;82.63
59831;BME280;45711;50.108;13.712;2023-10-31T08:51:54;96472.31;;;12.31;81.20
59831;BME280;45711;50.108;13.712;2023-10-31T08:54:21;96477.69;;;12.31;80.57
59831;BME280;45711;50.108;13.712;2023-10-31T08:56:46;96479.22;;;12.41;82.57
59831;BME280;45711;50.108;13.712;2023-10-31T08:59:12;96494.69;;;12.35;82.36
59831;BME280;45711;50.108;13.712;2023-10-31T09:01:38;96498.78;;;12.41;81.82
59831;BME280;45711;50.108;13.712;2023-10-31T09:04:04;96499.44;;;12.38;79.30
59831;BME280;45711;50.108;13.712;2023-10-31T09:06:29;96510.16;;;12.38;79.67
59831;BME280;45711;50.108;13.712;2023-10-31T09:08:57;96521.88;;;12.33;81.57
59831;BME280;45711;50.108;13.712;2023-10-31T09:11:24;96525.72;;;12.45;82.56
59831;BME280;45711;50.108;13.712;2023-10-31T09:13:49;96525.81;;;12.27;81.58
59831;BME280;45711;50.108;13.712;2023-10-31T09:16:15;96530.84;;;12.38;81.72
59831;BME280;45711;50.108;13.712;2023-10-31T09:18:41;96534.63;;;12.37;81.27
59831;BME280;45711;50.108;13.712;2023-10-31T09:21:08;96542.81;;;12.40;81.78
59831;BME280;45711;50.108;13.712;2023-10-31T09:23:34;96550.84;;;12.40;81.20
59831;BME280;45711;50.108;13.712;2023-10-31T09:26:00;96552.78;;;12.31;80.67
59831;BME280;45711;50.108;13.712;2023-10-31T09:28:26;96548.22;;;12.31;81.71
59831;BME280;45711;50.108;13.712;2023-10-31T09:30:52;96540.00;;;12.37;80.73
59831;BME280;45711;50.108;13.712;2023-10-31T09:33:17;96543.31;;;12.33;81.34
59831;BME280;45711;50.108;13.712;2023-10-31T09:35:43;96547.19;;;12.45;81.49
59831;BME280;45711;50.108;13.712;2023-10-31T09:38:09;96550.69;;;12.45;81.40
59831;BME280;45711;50.108;13.712;2023-10-31T09:40:36;96555.44;;;12.40;80.44
59831;BME280;45711;50.108;13.712;2023-10-31T09:43:02;96541.56;;;12.38;79.96
59831;BME280;45711;50.108;13.712;2023-10-31T09:45:29;96545.00;;;12.47;80.25
59831;BME280;45711;50.108;13.712;2023-10-31T09:47:54;96537.78;;;12.39;79.54
59831;BME280;45711;50.108;13.712;2023-10-31T09:50:20;96549.09;;;12.44;80.97
59831;BME280;45711;50.108;13.712;2023-10-31T09:52:46;96535.88;;;12.39;80.16
59831;BME280;45711;50.108;13.712;2023-10-31T09:55:12;96530.66;;;12.43;81.86
59831;BME280;45711;50.108;13.712;2023-10-31T09:57:37;96533.19;;;12.39;82.00
59831;BME280;45711;50.108;13.712;2023-10-31T10:00:04;96532.56;;;12.42;81.88
59831;BME280;45711;50.108;13.712;2023-10-31T10:02:31;96537.59;;;12.44;82.70
59831;BME280;45711;50.108;13.712;2023-10-31T10:04:57;96521.22;;;12.37;82.06
59831;BME280;45711;50.108;13.712;2023-10-31T10:07:23;96521.53;;;12.35;82.22
59831;BME280;45711;50.108;13.712;2023-10-31T10:09:49;96515.03;;;12.36;82.11
59831;BME280;45711;50.108;13.712;2023-10-31T10:12:15;96521.66;;;12.39;82.42
59831;BME280;45711;50.108;13.712;2023-10-31T10:14:41;96517.69;;;12.45;82.42
59831;BME280;45711;50.108;13.712;2023-10-31T10:17:14;96511.53;;;12.44;82.30
59831;BME280;45711;50.108;13.712;2023-10-31T10:19:41;96498.66;;;12.38;82.13
59831;BME280;45711;50.108;13.712;2023-10-31T10:22:07;96486.31;;;12.45;82.41
59831;BME280;45711;50.108;13.712;2023-10-31T10:24:33;96460.97;;;12.55;81.86
59831;BME280;45711;50.108;13.712;2023-10-31T10:26:58;96463.19;;;12.53;81.48
59831;BME280;45711;50.108;13.712;2023-10-31T10:29:24;96473.13;;;12.52;81.65
59831;BME280;45711;50.108;13.712;2023-10-31T10:31:51;96477.53;;;12.57;81.26
59831;BME280;45711;50.108;13.712;2023-10-31T10:34:17;96482.91;;;12.57;81.35
59831;BME280;45711;50.108;13.712;2023-10-31T10:36:46;96481.34;;;12.56;80.79
59831;BME280;45711;50.108;13.712;2023-10-31T10:39:15;96494.56;;;12.61;81.40
59831;BME280;45711;50.108;13.712;2023-10-31T10:41:43;96488.94;;;12.54;80.73
59831;BME280;45711;50.108;13.712;2023-10-31T10:44:12;96504.06;;;12.58;80.97
59831;BME280;45711;50.108;13.712;2023-10-31T10:46:39;96500.75;;;12.53;79.29
59831;BME280;45711;50.108;13.712;2023-10-31T10:49:08;96492.66;;;12.62;79.89
59831;BME280;45711;50.108;13.712;2023-10-31T10:51:43;96490.03;;;12.53;78.77
59831;BME280;45711;50.108;13.712;2023-10-31T10:54:15;96485.13;;;12.55;79.92
59831;BME280;45711;50.108;13.712;2023-10-31T10:56:46;96479.44;;;12.56;80.63
59831;BME280;45711;50.108;13.712;2023-10-31T10:59:20;96480.69;;;12.59;80.26
59831;BME280;45711;50.108;13.712;2023-10-31T11:01:46;96490.69;;;12.50;80.78
59831;BME280;45711;50.108;13.712;2023-10-31T11:04:12;96500.03;;;12.44;79.09
59831;BME280;45711;50.108;13.712;2023-10-31T11:06:39;96523.53;;;12.47;79.53
59831;BME280;45711;50.108;13.712;2023-10-31T11:09:05;96528.91;;;12.47;79.77
59831;BME280;45711;50.108;13.712;2023-10-31T11:11:33;96528.91;;;12.47;78.96
59831;BME280;45711;50.108;13.712;2023-10-31T11:14:00;96521.88;;;12.33;78.74
59831;BME280;45711;50.108;13.712;2023-10-31T11:16:30;96532.56;;;12.42;78.88
59831;BME280;45711;50.108;13.712;2023-10-31T11:18:59;96542.75;;;12.49;79.10
59831;BME280;45711;50.108;13.712;2023-10-31T11:21:29;96558.44;;;12.38;79.31
59831;BME280;45711;50.108;13.712;2023-10-31T11:23:58;96562.69;;;12.39;80.42
59831;BME280;45711;50.108;13.712;2023-10-31T11:26:25;96560.00;;;12.39;80.78
59831;BME280;45711;50.108;13.712;2023-10-31T11:29:13;96578.97;;;12.34;81.01
59831;BME280;45711;50.108;13.712;2023-10-31T11:31:42;96620.94;;;12.39;81.20
59831;BME280;45711;50.108;13.712;2023-10-31T11:34:21;96626.28;;;12.39;81.03
59831;BME280;45711;50.108;13.712;2023-10-31T11:36:47;96627.09;;;12.39;81.41
59831;BME280;45711;50.108;13.712;2023-10-31T11:39:23;96637.50;;;12.41;81.07
59831;BME280;45711;50.108;13.712;2023-10-31T11:41:53;96639.72;;;12.39;81.29
59831;BME280;45711;50.108;13.712;2023-10-31T11:44:22;96630.53;;;12.40;81.14
59831;BME280;45711;50.108;13.712;2023-10-31T11:46:59;96610.69;;;12.41;81.21
59831;BME280;45711;50.108;13.712;2023-10-31T11:49:48;96594.72;;;12.44;80.62
59831;BME280;45711;50.108;13.712;2023-10-31T11:52:34;96593.94;;;12.44;81.17
59831;BME280;45711;50.108;13.712;2023-10-31T11:58:57;96588.28;;;12.37;80.09
59831;BME280;45711;50.108;13.712;2023-10-31T12:01:54;96590.47;;;12.43;81.09
59831;BME280;45711;50.108;13.712;2023-10-31T12:05:12;96584.94;;;12.40;80.89
59831;BME280;45711;50.108;13.712;2023-10-31T12:08:02;96588.56;;;12.44;80.72
59831;BME280;45711;50.108;13.712;2023-10-31T12:10:32;96618.59;;;12.37;80.62
59831;BME280;45711;50.108;13.712;2023-10-31T12:13:00;96632.16;;;12.41;80.77
59831;BME280;45711;50.108;13.712;2023-10-31T12:15:41;96642.22;;;12.44;80.59
59831;BME280;45711;50.108;13.712;2023-10-31T12:20:31;96649.84;;;12.33;79.76
59831;BME280;45711;50.108;13.712;2023-10-31T12:21:43;96641.75;;;12.42;80.64
59831;BME280;45711;50.108;13.712;2023-10-31T12:24:18;96634.53;;;12.33;79.05
59831;BME280;45711;50.108;13.712;2023-10-31T12:26:53;96644.28;;;12.38;79.55
59831;BME280;45711;50.108;13.712;2023-10-31T12:29:21;96651.03;;;12.44;80.80
59831;BME280;45711;50.108;13.712;2023-10-31T12:31:48;96640.66;;;12.43;79.39
59831;BME280;45711;50.108;13.712;2023-10-31T12:34:19;96643.00;;;12.44;79.70
59831;BME280;45711;50.108;13.712;2023-10-31T12:36:52;96640.03;;;12.37;79.17
59831;BME280;45711;50.108;13.712;2023-10-31T12:39:24;96635.47;;;12.38;79.96
59831;BME280;45711;50.108;13.712;2023-10-31T12:42:02;96637.50;;;12.41;80.15
59831;BME280;45711;50.108;13.712;2023-10-31T12:44:28;96646.66;;;12.40;79.92
59831;BME280;45711;50.108;13.712;2023-10-31T12:46:55;96635.44;;;12.46;79.48
59831;BME280;45711;50.108;13.712;2023-10-31T12:49:22;96643.16;;;12.48;79.48
59831;BME280;45711;50.108;13.712;2023-10-31T12:51:55;96650.75;;;12.46;79.20
59831;BME280;45711;50.108;13.712;2023-10-31T12:54:27;96649.47;;;12.43;79.39